Jupiter Point, Connecticut
Current Conditions -  °F | °C
As of 3:56 PM on Thursday 18 Dec 2014 (Local Time) from KGON Reporting Station
Broken Clouds Broken Clouds  
Wind Chill: 32°   Ceiling: 3500
Heat Index: 39°   Visibility: 7mi
Dew Point: 28°   Wind: 10mph
Humidity: 65%   Direction: 310°NW
Pressure: 29.87"   Gusts: 18mph
Location:  41.3595°N, 72.0439°W
Report Text: KGON 182056Z 31009G16KT 7SM BKN035 04/M02 A2987 RMK AO2 SLP114 T00391022 53009
Loading
Personal Weather Stations






























Interactive Weather Map New forecast layout! Learn more

10-Day Weather Forecast

Advertisements
Track Severe Weather on mobile